createdAt,value
2022-10-31T00:01:19.964Z,15.40
2022-10-31T00:03:46.976Z,15.40
2022-10-31T00:06:13.905Z,15.40
2022-10-31T00:08:40.798Z,15.40
2022-10-31T00:11:11.435Z,15.30
2022-10-31T00:13:38.792Z,15.30
2022-10-31T00:16:06.203Z,15.30
2022-10-31T00:18:33.114Z,15.30
2022-10-31T00:21:02.092Z,15.30
2022-10-31T00:23:29.324Z,15.30
2022-10-31T00:26:02.599Z,15.30
2022-10-31T00:28:31.393Z,15.30
2022-10-31T00:31:02.654Z,15.30
2022-10-31T00:33:30.238Z,15.30
2022-10-31T00:35:57.425Z,15.20
2022-10-31T00:38:24.507Z,15.20
2022-10-31T00:40:51.542Z,15.20
2022-10-31T00:43:18.742Z,15.20
2022-10-31T00:45:45.732Z,15.10
2022-10-31T00:48:13.255Z,15.10
2022-10-31T00:50:40.635Z,15.00
2022-10-31T00:53:07.727Z,15.00
2022-10-31T00:55:34.949Z,15.00
2022-10-31T00:58:02.367Z,15.00
2022-10-31T01:00:29.591Z,15.00
2022-10-31T01:02:57.052Z,14.90
2022-10-31T01:05:24.242Z,15.20
2022-10-31T01:07:51.222Z,14.90
2022-10-31T01:10:18.994Z,14.90
2022-10-31T01:12:48.574Z,14.90
2022-10-31T01:15:22.155Z,14.90
2022-10-31T01:17:49.754Z,14.80
2022-10-31T01:20:17.588Z,14.90
2022-10-31T01:22:44.532Z,14.80
2022-10-31T01:25:12.048Z,14.80
2022-10-31T01:27:38.968Z,14.80
2022-10-31T01:30:06.697Z,14.80
2022-10-31T01:32:33.754Z,14.80
2022-10-31T01:35:00.734Z,14.80
2022-10-31T01:37:27.670Z,14.80
2022-10-31T01:39:54.646Z,14.80
2022-10-31T01:42:23.798Z,14.80
2022-10-31T01:45:02.627Z,14.70
2022-10-31T01:47:38.276Z,14.70
2022-10-31T01:53:09.207Z,14.70
2022-10-31T01:55:41.267Z,14.70
2022-10-31T02:00:49.849Z,14.70
2022-10-31T02:03:18.373Z,14.70
2022-10-31T02:05:45.551Z,14.70
2022-10-31T02:08:21.365Z,14.70
2022-10-31T02:10:48.479Z,14.90
2022-10-31T02:13:16.419Z,14.70
2022-10-31T02:15:45.280Z,14.70
2022-10-31T02:18:12.264Z,14.70
2022-10-31T02:20:54.421Z,14.70
2022-10-31T02:23:39.494Z,14.50
2022-10-31T02:26:50.683Z,14.70
2022-10-31T02:29:51.448Z,14.80
2022-10-31T02:32:55.624Z,14.70
2022-10-31T02:35:31.608Z,14.80
2022-10-31T02:38:13.107Z,14.80
2022-10-31T02:40:43.223Z,14.80
2022-10-31T02:43:21.560Z,14.80
2022-10-31T02:46:00.358Z,14.80
2022-10-31T02:48:29.992Z,14.90
2022-10-31T02:51:03.277Z,15.00
2022-10-31T02:53:37.928Z,15.10
2022-10-31T02:56:14.697Z,15.20
2022-10-31T02:58:47.240Z,15.30
2022-10-31T03:02:02.342Z,15.40
2022-10-31T03:04:29.405Z,15.50
2022-10-31T03:07:08.837Z,15.50
2022-10-31T03:10:04.789Z,15.60
2022-10-31T03:12:38.337Z,15.40
2022-10-31T03:15:08.332Z,15.70
2022-10-31T03:18:01.316Z,15.70
2022-10-31T03:20:35.799Z,15.80
2022-10-31T03:23:05.291Z,15.80
2022-10-31T03:25:34.003Z,15.90
2022-10-31T03:28:04.035Z,15.70
2022-10-31T03:30:36.140Z,15.90
2022-10-31T03:33:06.759Z,16.00
2022-10-31T03:35:35.868Z,16.00
2022-10-31T03:38:06.938Z,16.00
2022-10-31T03:40:37.884Z,15.80
2022-10-31T03:43:09.904Z,15.80
2022-10-31T03:45:44.183Z,15.50
2022-10-31T03:48:11.746Z,15.70
2022-10-31T03:50:59.381Z,15.60
2022-10-31T03:53:37.880Z,15.50
2022-10-31T03:56:13.881Z,15.50
2022-10-31T03:59:08.840Z,15.50
2022-10-31T04:01:40.322Z,15.40
2022-10-31T04:04:08.445Z,15.40
2022-10-31T04:06:39.110Z,15.40
2022-10-31T04:09:07.741Z,15.40
2022-10-31T04:11:39.260Z,15.40
2022-10-31T04:14:07.464Z,15.30
2022-10-31T04:16:34.662Z,15.30
2022-10-31T04:19:01.515Z,15.30
2022-10-31T04:21:30.381Z,15.30
2022-10-31T04:23:58.195Z,15.30
2022-10-31T04:26:25.208Z,15.30
2022-10-31T04:28:52.233Z,15.20
2022-10-31T04:31:19.815Z,15.20
2022-10-31T04:33:46.735Z,15.10
2022-10-31T04:36:14.020Z,15.10
2022-10-31T04:38:40.934Z,15.10
2022-10-31T04:41:07.919Z,15.10
2022-10-31T04:43:34.942Z,15.10
2022-10-31T04:46:02.185Z,15.10
2022-10-31T04:48:29.237Z,15.10
2022-10-31T04:51:03.214Z,15.00
2022-10-31T04:53:30.438Z,15.10
2022-10-31T04:56:00.861Z,15.10
2022-10-31T04:58:28.594Z,15.10
2022-10-31T05:00:56.725Z,15.10
2022-10-31T05:03:23.709Z,15.00
2022-10-31T05:05:51.092Z,14.90
2022-10-31T05:08:17.965Z,15.00
2022-10-31T05:10:44.944Z,14.90
2022-10-31T05:13:12.105Z,14.90
2022-10-31T05:15:39.060Z,14.90
2022-10-31T05:18:06.141Z,14.80
2022-10-31T05:20:33.787Z,14.80
2022-10-31T05:23:01.044Z,14.80
2022-10-31T05:25:30.029Z,14.80
2022-10-31T05:27:57.978Z,14.80
2022-10-31T05:30:32.926Z,14.80
2022-10-31T05:33:00.592Z,14.80
2022-10-31T05:35:33.451Z,15.10
2022-10-31T05:38:00.741Z,14.90
2022-10-31T05:40:28.532Z,14.80
2022-10-31T05:42:59.487Z,14.80
2022-10-31T05:45:26.719Z,14.80
2022-10-31T05:47:54.800Z,14.70
2022-10-31T05:50:22.117Z,14.70
2022-10-31T05:52:54.880Z,14.60
2022-10-31T05:55:21.764Z,14.60
2022-10-31T05:57:48.576Z,14.50
2022-10-31T06:00:15.588Z,14.50
2022-10-31T06:02:42.501Z,14.40
2022-10-31T06:05:09.635Z,14.40
2022-10-31T06:07:37.162Z,14.40
2022-10-31T06:10:07.838Z,14.40
2022-10-31T06:12:38.522Z,14.40
2022-10-31T06:15:09.688Z,14.40
2022-10-31T06:17:37.169Z,14.30
2022-10-31T06:20:05.415Z,14.30
2022-10-31T06:22:32.693Z,14.30
2022-10-31T06:24:59.904Z,14.30
2022-10-31T06:27:26.825Z,14.30
2022-10-31T06:29:53.752Z,14.50
2022-10-31T06:32:20.884Z,14.30
2022-10-31T06:34:49.264Z,14.40
2022-10-31T06:37:16.401Z,14.40
2022-10-31T06:39:43.292Z,14.40
2022-10-31T06:42:10.298Z,14.40
2022-10-31T06:44:37.212Z,14.40
2022-10-31T06:47:04.257Z,14.50
2022-10-31T06:49:31.136Z,14.40
2022-10-31T06:51:58.201Z,14.50
2022-10-31T06:54:25.047Z,14.60
2022-10-31T06:56:51.869Z,14.60
2022-10-31T06:59:18.984Z,14.70
2022-10-31T07:01:45.997Z,14.70
2022-10-31T07:04:13.251Z,14.90
2022-10-31T07:06:40.430Z,15.00
2022-10-31T07:09:07.301Z,15.10
2022-10-31T07:11:34.469Z,15.20
2022-10-31T07:14:01.448Z,15.40
2022-10-31T07:16:28.565Z,15.60
2022-10-31T07:18:55.443Z,15.70
2022-10-31T07:21:25.206Z,15.80
2022-10-31T07:23:52.129Z,16.00
2022-10-31T07:26:19.018Z,16.30
2022-10-31T07:28:48.488Z,16.20
2022-10-31T07:31:15.331Z,16.30
2022-10-31T07:33:42.237Z,16.40
2022-10-31T07:36:09.122Z,16.50
2022-10-31T07:38:35.986Z,16.50
2022-10-31T07:41:02.963Z,16.40
2022-10-31T07:43:29.806Z,16.70
2022-10-31T07:45:56.758Z,16.80
2022-10-31T07:48:24.000Z,16.90
2022-10-31T07:50:50.998Z,17.00
2022-10-31T07:53:17.988Z,17.00
2022-10-31T07:55:45.317Z,17.10
2022-10-31T07:58:17.787Z,17.20
2022-10-31T08:00:46.719Z,17.20
2022-10-31T08:03:15.959Z,17.30
2022-10-31T08:05:43.433Z,17.30
2022-10-31T08:08:10.677Z,17.30
2022-10-31T08:10:37.912Z,17.40
2022-10-31T08:13:07.992Z,17.40
2022-10-31T08:15:38.058Z,17.50
2022-10-31T08:18:06.427Z,17.60
2022-10-31T08:20:33.490Z,17.60
2022-10-31T08:23:05.689Z,17.70
2022-10-31T08:25:38.268Z,17.80
2022-10-31T08:28:06.824Z,17.80
2022-10-31T08:30:35.742Z,17.90
2022-10-31T08:33:14.486Z,18.00
2022-10-31T08:35:41.682Z,18.10
2022-10-31T08:38:13.662Z,18.10
2022-10-31T08:40:40.880Z,18.30
2022-10-31T08:43:15.485Z,18.40
2022-10-31T08:45:43.774Z,18.50
2022-10-31T08:48:13.347Z,18.60
2022-10-31T08:50:40.825Z,18.70
2022-10-31T08:53:11.617Z,18.90
2022-10-31T08:55:39.990Z,19.00
2022-10-31T08:58:08.583Z,19.00
2022-10-31T09:00:35.929Z,19.20
2022-10-31T09:03:05.572Z,19.30
2022-10-31T09:05:33.008Z,19.30
2022-10-31T09:08:01.624Z,19.40
2022-10-31T09:10:30.078Z,19.40
2022-10-31T09:13:02.853Z,19.40
2022-10-31T09:15:30.107Z,19.30
2022-10-31T09:17:57.755Z,19.30
2022-10-31T09:20:24.856Z,19.40
2022-10-31T09:23:07.215Z,19.40
2022-10-31T09:25:35.471Z,19.30
2022-10-31T09:28:04.281Z,19.20
2022-10-31T09:30:33.684Z,19.20
2022-10-31T09:33:03.114Z,19.00
2022-10-31T09:35:30.336Z,19.00
2022-10-31T09:37:58.962Z,18.80
2022-10-31T09:40:45.804Z,18.70
2022-10-31T09:43:44.519Z,18.70
2022-10-31T09:46:31.098Z,18.70
2022-10-31T09:49:12.095Z,18.70
2022-10-31T09:51:46.913Z,18.70
2022-10-31T09:54:25.545Z,18.70
2022-10-31T09:56:52.759Z,18.70
2022-10-31T09:59:36.895Z,18.70
2022-10-31T10:02:33.874Z,18.70
2022-10-31T10:05:05.003Z,18.60
2022-10-31T10:07:52.291Z,18.60
2022-10-31T10:10:25.066Z,18.50
2022-10-31T10:13:26.908Z,18.40
2022-10-31T10:16:17.193Z,18.50
2022-10-31T10:18:49.437Z,18.40
2022-10-31T10:21:40.610Z,18.40
2022-10-31T10:24:29.419Z,18.20
2022-10-31T10:27:23.911Z,18.40
2022-10-31T10:30:07.338Z,18.50
2022-10-31T10:32:49.265Z,18.50
2022-10-31T10:35:45.049Z,18.50
2022-10-31T10:38:31.255Z,18.50
2022-10-31T10:41:01.723Z,18.60
2022-10-31T10:43:37.746Z,18.60
2022-10-31T10:46:32.359Z,18.60
2022-10-31T10:49:18.398Z,18.60
2022-10-31T10:52:35.237Z,18.70
2022-10-31T10:55:23.563Z,18.70
2022-10-31T10:57:51.287Z,18.80
2022-10-31T11:00:33.047Z,18.80
2022-10-31T11:03:00.590Z,18.80
2022-10-31T11:05:48.167Z,18.90
2022-10-31T11:08:31.508Z,18.90
2022-10-31T11:11:04.492Z,18.90
2022-10-31T11:13:37.363Z,19.00
2022-10-31T11:16:11.176Z,19.00
2022-10-31T11:18:48.094Z,19.10
2022-10-31T11:21:26.240Z,19.20
2022-10-31T11:24:04.783Z,19.30
2022-10-31T11:26:31.892Z,19.30
2022-10-31T11:28:59.912Z,19.40
2022-10-31T11:31:28.214Z,19.50
2022-10-31T11:34:08.306Z,19.60
2022-10-31T11:36:39.076Z,19.60
2022-10-31T11:39:14.960Z,19.70
2022-10-31T11:41:45.085Z,19.80
2022-10-31T11:44:11.948Z,19.90
2022-10-31T11:46:43.949Z,20.00
2022-10-31T11:49:37.913Z,20.10
2022-10-31T11:52:13.419Z,20.10
2022-10-31T11:54:51.940Z,20.10
2022-10-31T11:57:32.930Z,20.10
2022-10-31T12:00:05.861Z,20.10
2022-10-31T12:02:32.844Z,20.20
2022-10-31T12:05:07.870Z,20.30
2022-10-31T12:07:35.060Z,20.20
2022-10-31T12:10:02.199Z,20.20
2022-10-31T12:12:44.711Z,20.20
2022-10-31T12:15:37.908Z,20.20
2022-10-31T12:18:18.860Z,20.20
2022-10-31T12:21:19.989Z,20.20
2022-10-31T12:24:05.443Z,20.20
2022-10-31T12:26:47.800Z,20.20
2022-10-31T12:29:47.815Z,20.20
2022-10-31T12:32:26.747Z,20.20
2022-10-31T12:34:56.607Z,20.20
2022-10-31T12:37:26.590Z,20.20
2022-10-31T12:40:20.063Z,20.20
2022-10-31T12:43:18.009Z,20.20
2022-10-31T12:46:00.497Z,20.10
2022-10-31T12:48:46.396Z,20.10
2022-10-31T12:51:22.297Z,20.00
2022-10-31T12:54:21.170Z,20.10
2022-10-31T12:57:03.350Z,20.10
2022-10-31T12:59:47.304Z,20.10
2022-10-31T13:02:29.390Z,20.10
2022-10-31T13:05:02.022Z,20.20
2022-10-31T13:07:37.072Z,20.30
2022-10-31T13:10:28.321Z,20.30
2022-10-31T13:13:02.412Z,20.30
2022-10-31T13:15:35.557Z,20.30
2022-10-31T13:18:11.871Z,20.30
2022-10-31T13:20:45.697Z,20.30
2022-10-31T13:23:48.481Z,20.20
2022-10-31T13:26:13.121Z,19.90
2022-10-31T13:29:01.938Z,20.10
2022-10-31T13:31:32.100Z,20.20
2022-10-31T13:34:16.712Z,20.20
2022-10-31T13:36:55.487Z,20.20
2022-10-31T13:39:40.521Z,20.10
2022-10-31T13:42:20.151Z,20.00
2022-10-31T13:44:47.210Z,19.60
2022-10-31T13:47:46.593Z,19.80
2022-10-31T13:50:23.146Z,19.70
2022-10-31T13:52:50.603Z,19.60
2022-10-31T13:55:42.631Z,19.50
2022-10-31T13:58:26.928Z,19.50
2022-10-31T14:01:26.592Z,19.50
2022-10-31T14:04:15.039Z,19.40
2022-10-31T14:07:06.058Z,19.40
2022-10-31T14:09:56.203Z,19.30
2022-10-31T14:12:38.315Z,19.30
2022-10-31T14:15:26.700Z,19.20
2022-10-31T14:18:08.414Z,19.20
2022-10-31T14:20:43.857Z,19.20
2022-10-31T14:23:38.661Z,19.20
2022-10-31T14:26:27.315Z,19.10
2022-10-31T14:28:56.537Z,19.10
2022-10-31T14:31:52.363Z,19.00
2022-10-31T14:34:38.064Z,19.00
2022-10-31T14:37:32.280Z,19.00
2022-10-31T14:40:11.979Z,18.90
2022-10-31T14:42:51.113Z,18.80
2022-10-31T14:45:18.187Z,18.80
2022-10-31T14:48:09.724Z,18.80
2022-10-31T14:50:54.102Z,18.70
2022-10-31T14:53:34.647Z,18.70
2022-10-31T14:56:06.652Z,18.70
2022-10-31T14:58:47.049Z,18.60
2022-10-31T15:01:23.790Z,18.60
2022-10-31T15:04:17.625Z,18.60
2022-10-31T15:06:44.365Z,18.50
2022-10-31T15:09:30.928Z,18.50
2022-10-31T15:12:19.721Z,18.30
2022-10-31T15:14:46.533Z,18.30
2022-10-31T15:17:13.820Z,18.20
2022-10-31T15:19:41.019Z,18.20
2022-10-31T15:22:14.798Z,18.10
2022-10-31T15:24:43.340Z,18.10
2022-10-31T15:27:19.237Z,18.10
2022-10-31T15:29:52.054Z,18.10
2022-10-31T15:32:33.266Z,18.10
2022-10-31T15:35:00.193Z,18.00
2022-10-31T15:37:27.895Z,18.00
2022-10-31T15:39:54.813Z,17.90
2022-10-31T15:42:33.443Z,17.90
2022-10-31T15:45:06.288Z,17.80
2022-10-31T15:47:34.361Z,17.70
2022-10-31T15:50:03.027Z,17.70
2022-10-31T15:52:41.077Z,17.60
2022-10-31T15:55:10.725Z,17.60
2022-10-31T15:57:50.701Z,17.60
2022-10-31T16:00:29.756Z,17.70
2022-10-31T16:03:30.013Z,17.60
2022-10-31T16:06:02.218Z,17.60
2022-10-31T16:08:32.129Z,17.60
2022-10-31T16:11:15.923Z,17.50
2022-10-31T16:14:03.223Z,17.50
2022-10-31T16:16:36.289Z,17.50
2022-10-31T16:19:06.544Z,17.50
2022-10-31T16:21:38.092Z,17.40
2022-10-31T16:24:30.739Z,17.40
2022-10-31T16:27:16.359Z,17.30
2022-10-31T16:29:45.757Z,17.40
2022-10-31T16:32:25.632Z,17.30
2022-10-31T16:35:18.438Z,17.30
2022-10-31T16:37:45.807Z,17.20
2022-10-31T16:40:16.671Z,17.20
2022-10-31T16:42:44.929Z,17.20
2022-10-31T16:45:19.506Z,17.20
2022-10-31T16:47:46.537Z,17.30
2022-10-31T16:50:15.330Z,17.30
2022-10-31T16:52:53.923Z,17.20
2022-10-31T16:55:27.738Z,17.20
2022-10-31T16:57:56.894Z,17.20
2022-10-31T17:00:26.334Z,17.20
2022-10-31T17:02:55.120Z,17.10
2022-10-31T17:05:29.930Z,17.10
2022-10-31T17:07:57.805Z,17.10
2022-10-31T17:10:25.299Z,17.00
2022-10-31T17:12:52.407Z,17.00
2022-10-31T17:15:24.794Z,16.90
2022-10-31T17:17:51.712Z,16.90
2022-10-31T17:20:23.538Z,16.80
2022-10-31T17:22:50.732Z,16.80
2022-10-31T17:25:23.477Z,16.80
2022-10-31T17:27:51.520Z,16.70
2022-10-31T17:30:19.756Z,16.70
2022-10-31T17:32:47.787Z,16.60
2022-10-31T17:35:15.931Z,16.60
2022-10-31T17:37:44.201Z,16.60
2022-10-31T17:40:15.976Z,16.60
2022-10-31T17:42:43.323Z,16.60
2022-10-31T17:45:10.625Z,16.60
2022-10-31T17:47:38.330Z,16.60
2022-10-31T17:50:05.486Z,16.50
2022-10-31T17:52:32.258Z,16.60
2022-10-31T17:54:59.133Z,16.60
2022-10-31T17:57:26.121Z,16.50
2022-10-31T17:59:52.947Z,16.50
2022-10-31T18:02:19.936Z,16.40
2022-10-31T18:04:46.879Z,16.40
2022-10-31T18:07:19.059Z,16.40
2022-10-31T18:09:49.493Z,16.40
2022-10-31T18:12:16.867Z,16.30
2022-10-31T18:14:48.240Z,16.30
2022-10-31T18:17:15.707Z,16.30
2022-10-31T18:19:42.737Z,16.30
2022-10-31T18:22:09.670Z,16.20
2022-10-31T18:24:36.615Z,16.20
2022-10-31T18:27:03.717Z,16.20
2022-10-31T18:29:30.637Z,16.20
2022-10-31T18:31:57.722Z,16.10
2022-10-31T18:34:24.656Z,16.10
2022-10-31T18:36:52.616Z,16.10
2022-10-31T18:39:19.589Z,16.10
2022-10-31T18:41:46.594Z,16.10
2022-10-31T18:44:13.467Z,16.10
2022-10-31T18:46:40.464Z,16.00
2022-10-31T18:49:07.413Z,16.00
2022-10-31T18:51:34.275Z,16.00
2022-10-31T18:54:02.029Z,16.00
2022-10-31T18:56:31.714Z,16.00
2022-10-31T18:59:02.256Z,16.00
2022-10-31T19:01:30.288Z,16.00
2022-10-31T19:03:58.491Z,16.00
2022-10-31T19:06:26.858Z,15.90
2022-10-31T19:08:59.256Z,15.90
2022-10-31T19:11:26.342Z,15.90
2022-10-31T19:13:53.507Z,15.90
2022-10-31T19:16:20.387Z,15.90
2022-10-31T19:18:47.322Z,15.80
2022-10-31T19:21:18.170Z,15.80
2022-10-31T19:23:45.557Z,15.80
2022-10-31T19:26:12.908Z,15.80
2022-10-31T19:28:41.370Z,15.80
2022-10-31T19:31:09.119Z,15.80
2022-10-31T19:33:36.579Z,15.80
2022-10-31T19:36:03.484Z,15.80
2022-10-31T19:38:30.706Z,15.80
2022-10-31T19:41:03.198Z,15.80
2022-10-31T19:43:30.202Z,15.70
2022-10-31T19:46:02.821Z,15.70
2022-10-31T19:48:30.270Z,15.60
2022-10-31T19:51:02.160Z,15.60
2022-10-31T19:53:30.836Z,15.60
2022-10-31T19:55:58.658Z,15.60
2022-10-31T19:58:25.900Z,15.60
2022-10-31T20:00:53.116Z,15.60
2022-10-31T20:03:22.576Z,15.60
2022-10-31T20:05:51.050Z,15.60
2022-10-31T20:08:21.640Z,15.50
2022-10-31T20:10:56.718Z,15.50
2022-10-31T20:13:24.604Z,15.40
2022-10-31T20:15:52.351Z,15.40
2022-10-31T20:18:20.035Z,15.30
2022-10-31T20:20:47.208Z,15.30
2022-10-31T20:23:14.313Z,15.30
2022-10-31T20:25:47.886Z,15.30
2022-10-31T20:28:15.596Z,15.20
2022-10-31T20:30:42.943Z,15.20
2022-10-31T20:33:11.846Z,15.20
2022-10-31T20:35:40.756Z,15.30
2022-10-31T20:38:09.021Z,15.20
2022-10-31T20:40:37.263Z,15.20
2022-10-31T20:43:05.742Z,15.20
2022-10-31T20:45:32.631Z,15.20
2022-10-31T20:48:00.115Z,15.20
2022-10-31T20:50:27.609Z,15.20
2022-10-31T20:52:54.705Z,15.30
2022-10-31T20:55:21.853Z,15.30
2022-10-31T20:57:48.767Z,15.30
2022-10-31T21:00:15.789Z,15.30
2022-10-31T21:02:43.288Z,15.30
2022-10-31T21:05:12.266Z,15.40
2022-10-31T21:07:39.583Z,15.40
2022-10-31T21:10:15.064Z,15.40
2022-10-31T21:12:45.776Z,15.40
2022-10-31T21:15:14.281Z,15.30
2022-10-31T21:17:41.842Z,15.30
2022-10-31T21:20:10.559Z,15.30
2022-10-31T21:22:38.294Z,15.30
2022-10-31T21:25:05.603Z,15.30
2022-10-31T21:27:32.688Z,15.30
2022-10-31T21:30:00.319Z,15.30
2022-10-31T21:32:27.180Z,15.30
2022-10-31T21:34:54.096Z,15.30
2022-10-31T21:37:21.089Z,15.40
2022-10-31T21:39:50.770Z,15.40
2022-10-31T21:42:21.381Z,15.40
2022-10-31T21:44:49.745Z,15.40
2022-10-31T21:47:17.324Z,15.40
2022-10-31T21:49:44.712Z,15.50
2022-10-31T21:52:12.394Z,15.50
2022-10-31T21:54:39.544Z,15.50
2022-10-31T21:57:06.834Z,15.60
2022-10-31T21:59:33.767Z,15.60
2022-10-31T22:02:01.300Z,15.60
2022-10-31T22:04:28.497Z,15.60
2022-10-31T22:06:55.406Z,15.60
2022-10-31T22:09:23.428Z,15.60
2022-10-31T22:11:50.614Z,15.60
2022-10-31T22:14:17.618Z,15.60
2022-10-31T22:16:44.541Z,15.50
2022-10-31T22:19:13.385Z,15.50
2022-10-31T22:21:46.608Z,15.50
2022-10-31T22:24:13.959Z,15.60
2022-10-31T22:26:41.519Z,15.50
2022-10-31T22:29:16.046Z,15.50
2022-10-31T22:31:46.195Z,15.50
2022-10-31T22:34:14.942Z,15.50
2022-10-31T22:36:42.677Z,15.50
2022-10-31T22:39:12.795Z,15.40
2022-10-31T22:41:39.707Z,15.40
2022-10-31T22:44:06.759Z,15.40
2022-10-31T22:46:36.213Z,15.50
2022-10-31T22:49:06.871Z,15.50
2022-10-31T22:51:36.515Z,15.50
2022-10-31T22:54:04.646Z,15.50
2022-10-31T22:56:33.764Z,15.40
2022-10-31T22:59:01.825Z,15.40
2022-10-31T23:01:32.030Z,15.40
2022-10-31T23:03:59.731Z,15.40
2022-10-31T23:06:30.244Z,15.40
2022-10-31T23:08:57.475Z,15.40
2022-10-31T23:11:25.726Z,15.30
2022-10-31T23:14:09.275Z,15.30
2022-10-31T23:16:56.801Z,15.30
2022-10-31T23:19:26.302Z,15.30
2022-10-31T23:22:02.313Z,15.30
2022-10-31T23:24:32.420Z,15.30
2022-10-31T23:27:09.622Z,15.30
2022-10-31T23:29:56.762Z,15.30
2022-10-31T23:32:27.462Z,15.30
2022-10-31T23:34:56.656Z,15.20
2022-10-31T23:37:25.842Z,15.20
2022-10-31T23:39:52.951Z,15.20
2022-10-31T23:42:21.993Z,15.20
2022-10-31T23:44:49.044Z,15.20
2022-10-31T23:47:16.600Z,15.20
2022-10-31T23:49:43.897Z,15.20
2022-10-31T23:52:11.446Z,15.10
2022-10-31T23:54:39.003Z,15.10
2022-10-31T23:57:06.360Z,15.10
2022-10-31T23:59:33.605Z,15.10
